sensor_id;sensor_type;location;lat;lon;timestamp;pressure;altitude;pressure_sealevel;temperature;humidity
74578;BME280;63173;49.086;33.418;2022-11-03T04:40:57;100686.53;;;5.91;66.29
74578;BME280;63173;49.086;33.418;2022-11-03T04:43:30;100685.97;;;5.89;68.35
74578;BME280;63173;49.086;33.418;2022-11-03T04:45:57;100694.03;;;6.22;65.87
74578;BME280;63173;49.086;33.418;2022-11-03T04:48:23;100701.28;;;6.21;66.02
74578;BME280;63173;49.086;33.418;2022-11-03T04:50:53;100708.19;;;6.12;65.81
74578;BME280;63173;49.086;33.418;2022-11-03T04:53:20;100712.06;;;6.21;67.18
74578;BME280;63173;49.086;33.418;2022-11-03T04:55:48;100716.47;;;6.27;66.26
74578;BME280;63173;49.086;33.418;2022-11-03T04:58:19;100723.94;;;6.20;66.95
74578;BME280;63173;49.086;33.418;2022-11-03T05:00:46;100723.28;;;6.30;67.29
74578;BME280;63173;49.086;33.418;2022-11-03T05:03:24;100717.00;;;6.24;66.88
74578;BME280;63173;49.086;33.418;2022-11-03T05:05:51;100718.94;;;6.29;67.27
74578;BME280;63173;49.086;33.418;2022-11-03T05:08:18;100718.34;;;6.43;67.39
74578;BME280;63173;49.086;33.418;2022-11-03T05:10:44;100718.69;;;6.30;69.75
74578;BME280;63173;49.086;33.418;2022-11-03T05:13:18;100721.00;;;6.22;71.83
74578;BME280;63173;49.086;33.418;2022-11-03T05:15:46;100718.09;;;6.28;73.16
74578;BME280;63173;49.086;33.418;2022-11-03T05:18:19;100726.66;;;6.42;70.76
74578;BME280;63173;49.086;33.418;2022-11-03T05:20:55;100731.47;;;6.56;69.13
74578;BME280;63173;49.086;33.418;2022-11-03T05:23:22;100729.81;;;6.55;68.31
74578;BME280;63173;49.086;33.418;2022-11-03T05:25:50;100727.31;;;6.49;68.23
74578;BME280;63173;49.086;33.418;2022-11-03T05:28:18;100735.41;;;6.71;66.54
74578;BME280;63173;49.086;33.418;2022-11-03T05:30:47;100740.75;;;6.65;67.50
74578;BME280;63173;49.086;33.418;2022-11-03T05:33:33;100739.56;;;6.56;66.58
74578;BME280;63173;49.086;33.418;2022-11-03T05:36:01;100747.72;;;6.61;67.00
74578;BME280;63173;49.086;33.418;2022-11-03T05:38:31;100736.88;;;6.56;66.32
74578;BME280;63173;49.086;33.418;2022-11-03T05:40:57;100735.63;;;6.64;66.38
74578;BME280;63173;49.086;33.418;2022-11-03T05:43:24;100742.00;;;6.58;65.78
74578;BME280;63173;49.086;33.418;2022-11-03T05:45:51;100740.69;;;6.82;65.11
74578;BME280;63173;49.086;33.418;2022-11-03T05:48:30;100742.56;;;6.82;65.25
74578;BME280;63173;49.086;33.418;2022-11-03T05:50:58;100743.09;;;6.79;64.92
74578;BME280;63173;49.086;33.418;2022-11-03T05:53:38;100742.25;;;6.78;65.62
74578;BME280;63173;49.086;33.418;2022-11-03T05:56:06;100738.81;;;6.83;67.46
74578;BME280;63173;49.086;33.418;2022-11-03T05:58:37;100751.81;;;7.07;68.74
74578;BME280;63173;49.086;33.418;2022-11-03T06:01:11;100746.75;;;7.16;68.30
74578;BME280;63173;49.086;33.418;2022-11-03T06:03:38;100748.91;;;7.14;67.21
74578;BME280;63173;49.086;33.418;2022-11-03T06:06:20;100752.69;;;7.13;66.24
74578;BME280;63173;49.086;33.418;2022-11-03T06:08:47;100747.97;;;7.03;66.77
74578;BME280;63173;49.086;33.418;2022-11-03T06:11:34;100746.47;;;7.39;66.07
74578;BME280;63173;49.086;33.418;2022-11-03T06:14:00;100743.81;;;7.44;66.00
74578;BME280;63173;49.086;33.418;2022-11-03T06:16:31;100744.22;;;7.31;66.60
74578;BME280;63173;49.086;33.418;2022-11-03T06:19:00;100740.78;;;7.35;64.82
74578;BME280;63173;49.086;33.418;2022-11-03T06:21:30;100748.41;;;7.70;62.20
74578;BME280;63173;49.086;33.418;2022-11-03T06:23:55;100746.88;;;7.26;62.92
74578;BME280;63173;49.086;33.418;2022-11-03T06:26:26;100740.88;;;7.45;63.31
74578;BME280;63173;49.086;33.418;2022-11-03T06:28:53;100741.34;;;7.64;61.97
74578;BME280;63173;49.086;33.418;2022-11-03T06:31:27;100745.09;;;7.63;63.50
74578;BME280;63173;49.086;33.418;2022-11-03T06:33:54;100742.50;;;7.73;63.51
74578;BME280;63173;49.086;33.418;2022-11-03T06:36:23;100731.06;;;7.66;64.60
74578;BME280;63173;49.086;33.418;2022-11-03T06:38:53;100733.53;;;7.68;65.27
74578;BME280;63173;49.086;33.418;2022-11-03T06:41:22;100738.06;;;7.94;63.80
74578;BME280;63173;49.086;33.418;2022-11-03T06:43:49;100738.28;;;7.87;65.08
74578;BME280;63173;49.086;33.418;2022-11-03T06:46:20;100737.75;;;7.90;63.93
74578;BME280;63173;49.086;33.418;2022-11-03T06:48:47;100737.16;;;8.20;64.08
74578;BME280;63173;49.086;33.418;2022-11-03T08:14:55;100721.75;;;9.49;78.01
74578;BME280;63173;49.086;33.418;2022-11-03T08:17:20;100723.97;;;9.72;76.92
74578;BME280;63173;49.086;33.418;2022-11-03T08:19:46;100723.69;;;9.99;76.35
74578;BME280;63173;49.086;33.418;2022-11-03T08:22:11;100723.41;;;10.20;75.22
74578;BME280;63173;49.086;33.418;2022-11-03T08:24:36;100706.31;;;9.95;74.31
74578;BME280;63173;49.086;33.418;2022-11-03T10:47:31;100573.50;;;11.26;50.27
74578;BME280;63173;49.086;33.418;2022-11-03T10:49:58;100572.50;;;11.46;51.56
74578;BME280;63173;49.086;33.418;2022-11-03T10:52:25;100571.44;;;11.42;51.87
74578;BME280;63173;49.086;33.418;2022-11-03T10:54:53;100572.97;;;11.24;52.57
74578;BME280;63173;49.086;33.418;2022-11-03T10:57:21;100576.72;;;11.28;50.33
74578;BME280;63173;49.086;33.418;2022-11-03T10:59:49;100573.34;;;11.12;51.55
74578;BME280;63173;49.086;33.418;2022-11-03T11:02:17;100567.84;;;11.17;50.57
74578;BME280;63173;49.086;33.418;2022-11-03T11:04:45;100560.47;;;11.23;49.89
74578;BME280;63173;49.086;33.418;2022-11-03T11:07:18;100566.47;;;11.20;50.05
74578;BME280;63173;49.086;33.418;2022-11-03T11:09:44;100561.84;;;11.49;49.22
74578;BME280;63173;49.086;33.418;2022-11-03T11:12:18;100560.03;;;11.39;49.94
74578;BME280;63173;49.086;33.418;2022-11-03T11:15:00;100565.16;;;11.46;49.36
74578;BME280;63173;49.086;33.418;2022-11-03T11:17:44;100564.25;;;11.27;50.44
74578;BME280;63173;49.086;33.418;2022-11-03T11:22:48;100558.09;;;11.16;51.61
74578;BME280;63173;49.086;33.418;2022-11-03T11:25:16;100562.09;;;11.24;50.70
74578;BME280;63173;49.086;33.418;2022-11-03T11:33:12;100541.59;;;11.03;52.88
74578;BME280;63173;49.086;33.418;2022-11-03T11:41:06;100545.16;;;10.98;54.43
74578;BME280;63173;49.086;33.418;2022-11-03T11:43:32;100542.38;;;11.03;54.13
74578;BME280;63173;49.086;33.418;2022-11-03T11:51:33;100532.44;;;10.89;54.48
74578;BME280;63173;49.086;33.418;2022-11-03T11:53:59;100536.94;;;10.70;55.44
74578;BME280;63173;49.086;33.418;2022-11-03T11:56:25;100531.53;;;10.65;56.31
74578;BME280;63173;49.086;33.418;2022-11-03T11:58:51;100532.03;;;10.72;57.47
74578;BME280;63173;49.086;33.418;2022-11-03T12:01:31;100536.97;;;10.65;57.01
74578;BME280;63173;49.086;33.418;2022-11-03T12:04:21;100532.81;;;10.28;59.97
74578;BME280;63173;49.086;33.418;2022-11-03T12:06:47;100522.16;;;10.42;59.36
74578;BME280;63173;49.086;33.418;2022-11-03T12:09:22;100520.63;;;10.21;61.10
74578;BME280;63173;49.086;33.418;2022-11-03T12:11:48;100519.03;;;10.15;60.93
74578;BME280;63173;49.086;33.418;2022-11-03T12:14:38;100517.19;;;10.10;58.31
74578;BME280;63173;49.086;33.418;2022-11-03T12:19:44;100513.31;;;10.21;59.00
74578;BME280;63173;49.086;33.418;2022-11-03T12:24:48;100507.38;;;10.09;60.28
74578;BME280;63173;49.086;33.418;2022-11-03T12:27:38;100513.88;;;10.03;62.74
74578;BME280;63173;49.086;33.418;2022-11-03T12:30:11;100510.16;;;9.84;64.76
74578;BME280;63173;49.086;33.418;2022-11-03T12:32:37;100526.22;;;9.71;65.12
74578;BME280;63173;49.086;33.418;2022-11-03T12:35:03;100517.59;;;9.54;68.30
74578;BME280;63173;49.086;33.418;2022-11-03T12:37:29;100529.78;;;9.51;67.08
74578;BME280;63173;49.086;33.418;2022-11-03T12:39:55;100534.69;;;9.19;70.18
74578;BME280;63173;49.086;33.418;2022-11-03T12:42:20;100533.34;;;9.21;71.20
74578;BME280;63173;49.086;33.418;2022-11-03T12:44:46;100531.69;;;8.75;73.89
74578;BME280;63173;49.086;33.418;2022-11-03T12:47:12;100534.13;;;8.72;76.21
74578;BME280;63173;49.086;33.418;2022-11-03T12:49:37;100530.31;;;8.52;76.88
74578;BME280;63173;49.086;33.418;2022-11-03T12:52:02;100531.41;;;8.51;77.87
74578;BME280;63173;49.086;33.418;2022-11-03T12:54:31;100535.69;;;8.42;79.82
74578;BME280;63173;49.086;33.418;2022-11-03T12:56:57;100530.81;;;8.44;80.56
74578;BME280;63173;49.086;33.418;2022-11-03T12:59:23;100526.38;;;8.23;82.55
74578;BME280;63173;49.086;33.418;2022-11-03T13:01:48;100535.56;;;8.12;83.93
74578;BME280;63173;49.086;33.418;2022-11-03T13:04:14;100532.56;;;8.04;84.35
74578;BME280;63173;49.086;33.418;2022-11-03T13:06:39;100526.06;;;8.05;83.80
74578;BME280;63173;49.086;33.418;2022-11-03T13:09:05;100522.78;;;7.98;84.73
74578;BME280;63173;49.086;33.418;2022-11-03T13:11:30;100520.63;;;8.00;85.45
74578;BME280;63173;49.086;33.418;2022-11-03T13:14:14;100527.97;;;8.14;84.76
74578;BME280;63173;49.086;33.418;2022-11-03T13:16:39;100524.03;;;8.32;85.24
74578;BME280;63173;49.086;33.418;2022-11-03T13:19:05;100519.84;;;8.04;86.67
74578;BME280;63173;49.086;33.418;2022-11-03T13:21:30;100523.25;;;7.85;86.83
74578;BME280;63173;49.086;33.418;2022-11-03T13:23:56;100527.63;;;7.91;87.12
74578;BME280;63173;49.086;33.418;2022-11-03T13:26:21;100528.09;;;7.78;88.25
74578;BME280;63173;49.086;33.418;2022-11-03T13:28:47;100517.66;;;7.96;89.07
74578;BME280;63173;49.086;33.418;2022-11-03T13:31:12;100518.97;;;7.94;89.54
74578;BME280;63173;49.086;33.418;2022-11-03T13:33:38;100522.19;;;7.86;89.88
74578;BME280;63173;49.086;33.418;2022-11-03T13:36:03;100513.00;;;7.92;89.15
74578;BME280;63173;49.086;33.418;2022-11-03T13:38:29;100510.03;;;7.93;89.58
74578;BME280;63173;49.086;33.418;2022-11-03T13:40:54;100501.91;;;7.83;89.47
74578;BME280;63173;49.086;33.418;2022-11-03T13:43:20;100500.44;;;7.60;90.46
74578;BME280;63173;49.086;33.418;2022-11-03T13:45:45;100498.81;;;7.64;91.25
74578;BME280;63173;49.086;33.418;2022-11-03T13:48:11;100502.88;;;7.62;90.80
74578;BME280;63173;49.086;33.418;2022-11-03T13:50:37;100502.59;;;7.63;91.52
74578;BME280;63173;49.086;33.418;2022-11-03T13:53:03;100493.38;;;7.59;91.65
74578;BME280;63173;49.086;33.418;2022-11-03T13:55:28;100495.22;;;7.49;92.73
74578;BME280;63173;49.086;33.418;2022-11-03T13:57:53;100496.56;;;7.51;91.97
74578;BME280;63173;49.086;33.418;2022-11-03T14:00:19;100486.59;;;7.52;93.20
74578;BME280;63173;49.086;33.418;2022-11-03T14:02:44;100481.38;;;7.40;93.27
74578;BME280;63173;49.086;33.418;2022-11-03T14:05:10;100484.69;;;7.47;92.82
74578;BME280;63173;49.086;33.418;2022-11-03T14:07:38;100486.31;;;7.53;93.94
74578;BME280;63173;49.086;33.418;2022-11-03T14:10:03;100484.38;;;7.44;93.27
74578;BME280;63173;49.086;33.418;2022-11-03T16:26:57;100361.91;;;8.66;99.08
74578;BME280;63173;49.086;33.418;2022-11-03T16:29:22;100355.94;;;8.74;99.01
74578;BME280;63173;49.086;33.418;2022-11-03T16:31:48;100364.88;;;8.74;98.04
74578;BME280;63173;49.086;33.418;2022-11-03T16:34:15;100365.94;;;8.78;98.42
74578;BME280;63173;49.086;33.418;2022-11-03T16:36:40;100367.84;;;8.73;97.95
74578;BME280;63173;49.086;33.418;2022-11-03T16:39:06;100369.50;;;8.59;97.40
74578;BME280;63173;49.086;33.418;2022-11-03T16:41:31;100374.63;;;8.50;96.50
74578;BME280;63173;49.086;33.418;2022-11-03T16:43:57;100374.63;;;8.50;96.46
74578;BME280;63173;49.086;33.418;2022-11-03T16:46:22;100366.50;;;8.30;98.19
74578;BME280;63173;49.086;33.418;2022-11-03T16:48:48;100371.13;;;8.24;98.37
74578;BME280;63173;49.086;33.418;2022-11-03T16:51:13;100377.56;;;8.23;97.58
74578;BME280;63173;49.086;33.418;2022-11-03T16:53:38;100381.06;;;8.14;97.18
74578;BME280;63173;49.086;33.418;2022-11-03T16:56:04;100379.72;;;8.16;97.49
74578;BME280;63173;49.086;33.418;2022-11-03T16:58:29;100377.03;;;8.11;97.21
74578;BME280;63173;49.086;33.418;2022-11-03T17:00:55;100390.78;;;8.00;96.79
74578;BME280;63173;49.086;33.418;2022-11-03T17:03:20;100400.78;;;7.99;97.00
74578;BME280;63173;49.086;33.418;2022-11-03T17:05:45;100404.75;;;7.67;96.64
74578;BME280;63173;49.086;33.418;2022-11-03T17:08:11;100405.94;;;7.29;97.31
74578;BME280;63173;49.086;33.418;2022-11-03T17:10:36;100404.59;;;7.26;97.49
74578;BME280;63173;49.086;33.418;2022-11-03T17:13:02;100397.72;;;7.09;98.10
74578;BME280;63173;49.086;33.418;2022-11-03T17:15:27;100416.56;;;6.99;97.21
74578;BME280;63173;49.086;33.418;2022-11-03T17:17:52;100403.00;;;6.89;97.43
74578;BME280;63173;49.086;33.418;2022-11-03T17:20:18;100427.50;;;6.82;97.39
74578;BME280;63173;49.086;33.418;2022-11-03T17:22:43;100418.41;;;6.93;98.10
74578;BME280;63173;49.086;33.418;2022-11-03T17:25:10;100428.34;;;6.83;96.93
74578;BME280;63173;49.086;33.418;2022-11-03T17:27:48;100430.97;;;6.78;96.79
74578;BME280;63173;49.086;33.418;2022-11-03T17:30:22;100429.34;;;6.72;97.17
74578;BME280;63173;49.086;33.418;2022-11-03T17:32:51;100425.00;;;6.71;96.57
74578;BME280;63173;49.086;33.418;2022-11-03T17:35:24;100436.50;;;6.61;97.19
74578;BME280;63173;49.086;33.418;2022-11-03T17:37:52;100435.19;;;6.63;96.80
74578;BME280;63173;49.086;33.418;2022-11-03T17:40:23;100435.16;;;6.58;96.81
74578;BME280;63173;49.086;33.418;2022-11-03T17:42:49;100441.44;;;6.69;97.09
74578;BME280;63173;49.086;33.418;2022-11-03T17:45:17;100440.03;;;6.61;97.17
74578;BME280;63173;49.086;33.418;2022-11-03T17:47:43;100436.44;;;6.51;96.92
74578;BME280;63173;49.086;33.418;2022-11-03T17:50:16;100447.31;;;6.61;97.01
74578;BME280;63173;49.086;33.418;2022-11-03T17:52:43;100436.22;;;6.57;96.61
74578;BME280;63173;49.086;33.418;2022-11-03T17:55:30;100444.63;;;6.61;96.51
74578;BME280;63173;49.086;33.418;2022-11-03T17:57:58;100445.69;;;6.60;96.03
74578;BME280;63173;49.086;33.418;2022-11-03T18:00:24;100442.94;;;6.55;96.77
74578;BME280;63173;49.086;33.418;2022-11-03T18:02:50;100436.78;;;6.59;96.13
74578;BME280;63173;49.086;33.418;2022-11-03T18:05:30;100440.50;;;6.53;95.78
74578;BME280;63173;49.086;33.418;2022-11-03T18:08:00;100451.34;;;6.58;96.04
74578;BME280;63173;49.086;33.418;2022-11-03T18:10:29;100452.72;;;6.61;96.16
74578;BME280;63173;49.086;33.418;2022-11-03T18:13:01;100454.28;;;6.57;95.74
74578;BME280;63173;49.086;33.418;2022-11-03T18:15:42;100458.06;;;6.56;96.17
74578;BME280;63173;49.086;33.418;2022-11-03T18:18:18;100451.00;;;6.50;95.62
74578;BME280;63173;49.086;33.418;2022-11-03T18:20:47;100457.25;;;6.55;95.65
74578;BME280;63173;49.086;33.418;2022-11-03T18:23:17;100459.44;;;6.58;96.08
74578;BME280;63173;49.086;33.418;2022-11-03T18:25:43;100459.50;;;6.63;95.20
74578;BME280;63173;49.086;33.418;2022-11-03T18:28:09;100459.69;;;6.57;95.13
74578;BME280;63173;49.086;33.418;2022-11-03T18:30:37;100467.06;;;6.66;95.61
74578;BME280;63173;49.086;33.418;2022-11-03T18:33:03;100467.06;;;6.66;95.14
74578;BME280;63173;49.086;33.418;2022-11-03T18:35:31;100468.72;;;6.68;95.48
74578;BME280;63173;49.086;33.418;2022-11-03T18:37:57;100478.13;;;6.65;96.00
74578;BME280;63173;49.086;33.418;2022-11-03T18:40:23;100484.34;;;6.65;95.35
74578;BME280;63173;49.086;33.418;2022-11-03T18:42:48;100486.97;;;6.60;96.33
74578;BME280;63173;49.086;33.418;2022-11-03T18:45:15;100488.34;;;6.63;95.37
74578;BME280;63173;49.086;33.418;2022-11-03T18:47:41;100481.81;;;6.54;96.17
74578;BME280;63173;49.086;33.418;2022-11-03T18:50:12;100487.34;;;6.69;96.37
74578;BME280;63173;49.086;33.418;2022-11-03T18:52:41;100486.19;;;6.60;96.40
74578;BME280;63173;49.086;33.418;2022-11-03T18:55:10;100494.06;;;6.66;96.46
74578;BME280;63173;49.086;33.418;2022-11-03T18:57:36;100483.03;;;6.41;96.86
74578;BME280;63173;49.086;33.418;2022-11-03T19:00:14;100496.41;;;6.58;96.23
74578;BME280;63173;49.086;33.418;2022-11-03T19:02:40;100491.00;;;6.58;97.18
74578;BME280;63173;49.086;33.418;2022-11-03T19:05:05;100488.16;;;6.70;95.98
74578;BME280;63173;49.086;33.418;2022-11-03T19:07:32;100498.13;;;6.69;96.70
74578;BME280;63173;49.086;33.418;2022-11-03T19:10:03;100496.16;;;6.59;96.18
74578;BME280;63173;49.086;33.418;2022-11-03T19:12:30;100499.75;;;6.70;95.45
74578;BME280;63173;49.086;33.418;2022-11-03T19:14:56;100493.75;;;6.63;94.96
74578;BME280;63173;49.086;33.418;2022-11-03T19:17:22;100504.84;;;6.66;95.46
74578;BME280;63173;49.086;33.418;2022-11-03T19:19:48;100503.72;;;6.62;95.82
74578;BME280;63173;49.086;33.418;2022-11-03T19:22:15;100502.06;;;6.56;95.16
74578;BME280;63173;49.086;33.418;2022-11-03T19:24:42;100510.97;;;6.57;94.96
74578;BME280;63173;49.086;33.418;2022-11-03T19:27:17;100518.34;;;6.66;94.22
74578;BME280;63173;49.086;33.418;2022-11-03T19:29:45;100519.44;;;6.65;94.41
74578;BME280;63173;49.086;33.418;2022-11-03T19:34:43;100527.69;;;6.54;94.06
74578;BME280;63173;49.086;33.418;2022-11-03T19:37:09;100526.84;;;6.53;93.32
74578;BME280;63173;49.086;33.418;2022-11-03T19:39:38;100517.91;;;6.48;93.45
74578;BME280;63173;49.086;33.418;2022-11-03T19:42:13;100527.97;;;6.57;93.47
74578;BME280;63173;49.086;33.418;2022-11-03T19:45:09;100531.13;;;6.49;93.38
74578;BME280;63173;49.086;33.418;2022-11-03T19:47:38;100530.22;;;6.39;93.52
74578;BME280;63173;49.086;33.418;2022-11-03T19:50:06;100539.06;;;6.34;92.88
74578;BME280;63173;49.086;33.418;2022-11-03T19:52:33;100543.75;;;6.44;93.86
74578;BME280;63173;49.086;33.418;2022-11-03T19:55:03;100545.97;;;6.47;93.07
74578;BME280;63173;49.086;33.418;2022-11-03T19:57:32;100547.56;;;6.48;93.43
74578;BME280;63173;49.086;33.418;2022-11-03T19:59:57;100553.19;;;6.41;92.19
74578;BME280;63173;49.086;33.418;2022-11-03T20:02:23;100553.19;;;6.41;93.00
74578;BME280;63173;49.086;33.418;2022-11-03T20:04:49;100548.84;;;6.40;93.47
74578;BME280;63173;49.086;33.418;2022-11-03T20:07:15;100543.50;;;6.45;92.09
74578;BME280;63173;49.086;33.418;2022-11-03T22:29:24;100594.13;;;6.60;93.39
74578;BME280;63173;49.086;33.418;2022-11-03T22:32:14;100589.00;;;6.58;93.10
74578;BME280;63173;49.086;33.418;2022-11-03T22:34:40;100592.63;;;6.47;93.34
74578;BME280;63173;49.086;33.418;2022-11-03T22:37:24;100591.88;;;6.52;93.48
74578;BME280;63173;49.086;33.418;2022-11-03T22:39:49;100600.16;;;6.45;94.30
74578;BME280;63173;49.086;33.418;2022-11-03T22:42:33;100591.06;;;6.51;93.17
74578;BME280;63173;49.086;33.418;2022-11-03T22:45:17;100587.75;;;6.44;93.71
74578;BME280;63173;49.086;33.418;2022-11-03T22:48:02;100596.09;;;6.43;93.95
74578;BME280;63173;49.086;33.418;2022-11-03T22:50:29;100602.09;;;6.50;93.89
74578;BME280;63173;49.086;33.418;2022-11-03T22:52:54;100598.78;;;6.43;93.64
74578;BME280;63173;49.086;33.418;2022-11-03T22:55:19;100601.25;;;6.44;94.28
74578;BME280;63173;49.086;33.418;2022-11-03T22:57:45;100596.09;;;6.43;94.59
74578;BME280;63173;49.086;33.418;2022-11-03T23:00:11;100608.81;;;6.47;93.56
74578;BME280;63173;49.086;33.418;2022-11-03T23:02:37;100615.47;;;6.40;94.11
74578;BME280;63173;49.086;33.418;2022-11-03T23:05:03;100617.88;;;6.36;93.66
74578;BME280;63173;49.086;33.418;2022-11-03T23:07:29;100614.03;;;6.32;94.87
74578;BME280;63173;49.086;33.418;2022-11-03T23:09:54;100617.44;;;6.44;94.97
74578;BME280;63173;49.086;33.418;2022-11-03T23:12:19;100617.03;;;6.36;94.97
74578;BME280;63173;49.086;33.418;2022-11-03T23:14:45;100616.56;;;6.39;94.42
74578;BME280;63173;49.086;33.418;2022-11-03T23:17:28;100619.19;;;6.34;93.82
74578;BME280;63173;49.086;33.418;2022-11-03T23:20:12;100616.41;;;6.29;94.68
74578;BME280;63173;49.086;33.418;2022-11-03T23:22:56;100626.59;;;6.22;95.50
74578;BME280;63173;49.086;33.418;2022-11-03T23:25:22;100628.53;;;6.26;95.12
74578;BME280;63173;49.086;33.418;2022-11-03T23:27:47;100617.81;;;6.31;94.08
74578;BME280;63173;49.086;33.418;2022-11-03T23:30:13;100637.31;;;6.38;94.05
74578;BME280;63173;49.086;33.418;2022-11-03T23:32:38;100637.41;;;6.43;94.14
74578;BME280;63173;49.086;33.418;2022-11-03T23:35:04;100640.38;;;6.25;94.53
74578;BME280;63173;49.086;33.418;2022-11-03T23:37:29;100639.97;;;6.33;94.81
74578;BME280;63173;49.086;33.418;2022-11-03T23:39:55;100639.88;;;6.28;94.29
74578;BME280;63173;49.086;33.418;2022-11-03T23:42:20;100635.00;;;6.25;94.20
74578;BME280;63173;49.086;33.418;2022-11-03T23:44:46;100636.81;;;6.20;94.90
74578;BME280;63173;49.086;33.418;2022-11-03T23:47:29;100621.00;;;6.28;94.02
74578;BME280;63173;49.086;33.418;2022-11-03T23:50:13;100614.22;;;6.26;94.51
74578;BME280;63173;49.086;33.418;2022-11-03T23:52:38;100611.41;;;6.16;94.18
74578;BME280;63173;49.086;33.418;2022-11-03T23:55:04;100609.47;;;6.11;95.22
74578;BME280;63173;49.086;33.418;2022-11-03T23:57:30;100617.22;;;6.08;95.59
